Time;durP1;ratioP1;P1;durP2;ratioP2;P2;SDS_P1;SDS_P2;PMS_P1;PMS_P2;Temp;Humidity;BMP_temperature;BMP_pressure;BME280_temperature;BME280_humidity;BME280_pressure;Samples;Min_cycle;Max_cycle;Signal;HPM_P1;HPM_P2
2023/06/11 00:01:48;;;;;;;5.60;5.00;;;;;;;24.93;43.52;100355.03;4133418;28;20078;-70
2023/06/11 00:03:52;;;;;;;6.60;4.78;;;;;;;24.83;43.57;100356.41;4131922;28;20050;-70
2023/06/11 00:05:55;;;;;;;6.18;4.55;;;;;;;24.80;43.76;100361.88;4133348;28;20042;-70
2023/06/11 00:08:04;;;;;;;7.00;4.80;;;;;;;24.71;43.79;100356.03;4133466;28;20089;-70
2023/06/11 00:10:08;;;;;;;6.63;4.70;;;;;;;24.85;43.71;100357.19;4132208;28;20042;-70
2023/06/11 00:12:13;;;;;;;6.88;5.43;;;;;;;24.92;43.30;100364.78;4132121;28;20134;-70
2023/06/11 00:14:16;;;;;;;8.20;5.57;;;;;;;24.77;43.60;100354.03;4115717;28;20046;-70
2023/06/11 00:16:18;;;;;;;6.90;5.05;;;;;;;24.67;44.17;100364.22;4099866;29;20051;-70
2023/06/11 00:18:22;;;;;;;8.45;5.15;;;;;;;24.68;44.15;100358.84;4133154;28;20038;-70
2023/06/11 00:20:25;;;;;;;9.63;4.35;;;;;;;24.69;44.04;100365.88;4133164;28;20049;-70
2023/06/11 00:22:31;;;;;;;9.65;5.20;;;;;;;24.71;43.98;100366.66;4133111;28;20133;-70
2023/06/11 00:24:35;;;;;;;4.82;4.00;;;;;;;24.67;44.21;100369.53;4132990;28;20073;-70
2023/06/11 00:26:38;;;;;;;6.50;4.53;;;;;;;24.67;44.10;100374.84;4115667;28;20468;-70
2023/06/11 00:28:41;;;;;;;6.78;4.50;;;;;;;24.58;44.45;100370.78;4115778;28;20093;-71
2023/06/11 00:30:44;;;;;;;6.05;4.38;;;;;;;24.53;44.60;100364.81;4132611;28;20157;-73
2023/06/11 00:32:47;;;;;;;9.57;4.28;;;;;;;24.52;44.55;100368.44;4132947;28;20042;-72
2023/06/11 00:34:50;;;;;;;5.78;4.18;;;;;;;24.50;44.71;100367.63;4115456;28;20141;-71
2023/06/11 00:36:53;;;;;;;4.85;4.32;;;;;;;24.47;44.87;100370.41;4136272;28;20040;-72
2023/06/11 00:38:56;;;;;;;7.07;4.70;;;;;;;24.47;44.97;100379.22;4140843;28;20466;-71
2023/06/11 00:41:00;;;;;;;5.35;4.18;;;;;;;24.47;45.16;100381.03;4131737;28;20678;-71
2023/06/11 00:43:04;;;;;;;;;;;;;;;24.39;45.25;100371.63;4149442;28;20046;-71
2023/06/11 00:45:08;;;;;;;5.05;4.07;;;;;;;24.33;45.10;100376.38;4148890;28;20268;-71
2023/06/11 00:47:12;;;;;;;7.22;4.20;;;;;;;24.30;44.98;100371.16;4148829;28;20052;-71
2023/06/11 00:49:15;;;;;;;5.10;4.28;;;;;;;24.30;45.24;100374.69;4131480;28;20053;-70
2023/06/11 00:51:18;;;;;;;7.53;4.37;;;;;;;24.31;45.22;100381.75;4131608;28;20034;-71
2023/06/11 00:53:22;;;;;;;4.87;4.10;;;;;;;24.31;45.56;100375.56;4131469;28;20077;-71
2023/06/11 00:55:25;;;;;;;6.75;4.53;;;;;;;24.28;45.23;100368.56;4148653;28;20042;-71
2023/06/11 00:57:29;;;;;;;7.32;4.65;;;;;;;24.26;45.00;100374.91;4148555;28;20133;-71
2023/06/11 00:59:33;;;;;;;9.88;4.43;;;;;;;24.26;45.17;100383.72;4147527;28;20049;-71
2023/06/11 01:01:41;;;;;;;9.32;4.85;;;;;;;24.27;45.17;100379.25;4131472;28;20125;-71
2023/06/11 01:03:45;;;;;;;5.00;4.03;;;;;;;24.23;45.21;100383.88;4147345;28;20490;-72
2023/06/11 01:05:54;;;;;;;6.60;4.38;;;;;;;24.21;45.27;100383.94;4147474;28;20038;-71
2023/06/11 01:07:58;;;;;;;5.43;4.55;;;;;;;24.18;45.11;100377.88;4147430;28;20054;-71
2023/06/11 01:10:08;;;;;;;6.35;3.90;;;;;;;24.16;45.58;100382.41;4131328;28;20125;-71
2023/06/11 01:12:12;;;;;;;4.40;4.00;;;;;;;24.12;45.86;100388.78;4131222;28;20590;-71
2023/06/11 01:14:17;;;;;;;6.35;4.20;;;;;;;24.06;45.81;100376.63;4130889;28;20150;-71
2023/06/11 01:16:34;;;;;;;5.70;4.20;;;;;;;24.03;46.10;100384.72;4131091;28;20137;-71
2023/06/11 01:18:47;;;;;;;5.18;4.13;;;;;;;23.94;46.03;100383.31;4130977;28;20120;-71
2023/06/11 01:21:00;;;;;;;5.70;4.05;;;;;;;23.87;46.79;100380.09;4147347;28;20042;-71
2023/06/11 01:23:20;;;;;;;6.18;4.72;;;;;;;23.85;46.97;100381.91;4131116;28;20042;-71
2023/06/11 01:25:30;;;;;;;6.70;4.68;;;;;;;23.83;47.52;100382.88;4131091;28;20077;-71
2023/06/11 01:27:44;;;;;;;6.80;5.05;;;;;;;23.90;46.71;100380.88;4147280;28;20519;-72
2023/06/11 01:29:50;;;;;;;7.10;4.60;;;;;;;23.88;46.21;100380.94;4130982;28;20042;-71
2023/06/11 01:31:55;;;;;;;8.18;4.75;;;;;;;23.82;46.01;100390.00;4147157;28;20084;-71
2023/06/11 01:33:58;;;;;;;6.30;4.38;;;;;;;23.85;45.85;100386.34;4114339;28;20052;-71
2023/06/11 01:36:06;;;;;;;5.80;4.47;;;;;;;23.80;45.60;100388.31;4146972;28;20042;-72
2023/06/11 01:38:10;;;;;;;6.25;4.35;;;;;;;23.79;45.64;100376.00;4147011;28;20614;-71
2023/06/11 01:40:18;;;;;;;6.68;4.40;;;;;;;23.73;45.69;100387.72;4146915;28;20054;-71
2023/06/11 01:42:25;;;;;;;7.63;5.07;;;;;;;23.72;45.82;100393.09;4146253;28;20042;-71
2023/06/11 01:44:28;;;;;;;7.45;4.60;;;;;;;23.70;45.62;100394.03;4130394;28;20042;-71
2023/06/11 01:46:33;;;;;;;6.95;4.70;;;;;;;23.67;45.53;100388.84;4130598;28;20050;-71
2023/06/11 01:48:36;;;;;;;;;;;;;;;23.53;45.88;100386.75;4114966;28;20078;-71
2023/06/11 01:50:39;;;;;;;6.72;4.82;;;;;;;23.60;46.01;100382.06;4130629;28;20008;-71
2023/06/11 01:52:42;;;;;;;6.32;4.78;;;;;;;23.66;45.57;100392.41;4148015;28;20496;-71
2023/06/11 01:54:45;;;;;;;6.60;4.20;;;;;;;23.58;45.62;100389.22;4130585;28;20132;-71
2023/06/11 01:56:48;;;;;;;5.97;4.43;;;;;;;23.59;45.41;100388.28;4114291;28;20054;-71
2023/06/11 01:58:51;;;;;;;7.13;4.22;;;;;;;23.57;45.56;100376.00;4146705;28;20042;-71
2023/06/11 02:00:54;;;;;;;6.15;4.35;;;;;;;23.56;45.58;100391.06;4130577;28;20126;-71
2023/06/11 02:02:59;;;;;;;6.18;3.97;;;;;;;23.54;45.61;100390.28;4147982;28;20038;-72
2023/06/11 02:05:02;;;;;;;8.65;4.78;;;;;;;23.45;45.88;100383.56;4147653;28;20050;-70
2023/06/11 02:07:05;;;;;;;5.28;4.00;;;;;;;23.39;45.92;100383.78;4130406;28;20089;-70
2023/06/11 02:09:08;;;;;;;5.88;4.68;;;;;;;23.41;46.14;100389.91;4146752;28;20037;-70
2023/06/11 02:11:11;;;;;;;5.47;3.97;;;;;;;23.40;46.05;100385.53;4146588;28;20042;-70
2023/06/11 02:13:14;;;;;;;5.95;4.50;;;;;;;23.30;46.42;100400.94;4130508;28;20353;-71
2023/06/11 02:15:17;;;;;;;5.22;4.30;;;;;;;23.28;46.86;100399.28;4130088;28;20034;-70
2023/06/11 02:17:20;;;;;;;6.80;4.53;;;;;;;23.27;47.01;100398.41;4146572;28;20121;-70
2023/06/11 02:19:24;;;;;;;8.77;4.53;;;;;;;23.27;46.73;100398.41;4147715;28;20092;-70
2023/06/11 02:21:27;;;;;;;;;;;;;;;23.41;46.05;100392.56;4114592;28;20042;-71
2023/06/11 02:23:30;;;;;;;5.97;4.65;;;;;;;23.28;46.58;100397.50;4130294;28;20399;-70
2023/06/11 02:25:33;;;;;;;8.40;4.40;;;;;;;23.25;46.93;100394.97;4130031;28;20042;-70
2023/06/11 02:27:35;;;;;;;7.88;4.75;;;;;;;23.24;47.17;100397.69;4147693;28;20090;-70
2023/06/11 02:29:39;;;;;;;5.82;4.53;;;;;;;23.22;47.27;100402.16;4130275;28;20042;-71
2023/06/11 02:31:41;;;;;;;6.30;4.57;;;;;;;23.29;46.95;100404.53;4130211;28;20435;-71
2023/06/11 02:33:45;;;;;;;5.68;4.45;;;;;;;23.28;46.79;100410.75;4129928;28;20062;-70
2023/06/11 02:35:49;;;;;;;7.55;4.10;;;;;;;23.23;47.09;100404.78;4144032;28;20042;-70
2023/06/11 02:37:52;;;;;;;;;;;;;;;23.14;46.91;100416.63;4118871;28;20047;-71
2023/06/11 02:39:55;;;;;;;6.82;4.07;;;;;;;23.09;47.10;100412.38;4143102;28;20004;-70
2023/06/11 02:41:58;;;;;;;7.32;4.47;;;;;;;23.10;47.37;100414.09;4130298;28;20066;-71
2023/06/11 02:44:01;;;;;;;6.22;3.90;;;;;;;23.14;47.08;100421.03;4147381;28;20042;-71
2023/06/11 02:46:04;;;;;;;7.50;5.15;;;;;;;23.18;47.06;100417.34;4147616;28;20048;-71
2023/06/11 02:48:07;;;;;;;8.50;4.80;;;;;;;23.28;46.52;100415.22;4130082;28;20093;-71
2023/06/11 02:50:10;;;;;;;5.47;4.15;;;;;;;23.18;46.70;100418.19;4142245;28;20037;-71
2023/06/11 02:52:15;;;;;;;7.00;4.35;;;;;;;23.15;46.92;100428.09;4105810;28;20589;-71
2023/06/11 02:54:17;;;;;;;7.28;4.32;;;;;;;23.13;47.61;100425.50;4116121;28;20380;-72
2023/06/11 02:56:20;;;;;;;7.07;3.97;;;;;;;23.06;47.42;100423.09;4150572;28;20157;-71
2023/06/11 02:58:23;;;;;;;6.63;3.90;;;;;;;23.01;47.58;100433.88;4149489;28;20046;-71
2023/06/11 03:00:26;;;;;;;7.03;4.00;;;;;;;23.00;47.78;100432.16;4133200;28;20065;-71
2023/06/11 03:02:29;;;;;;;5.70;4.70;;;;;;;22.99;47.86;100427.78;4149392;28;20141;-72
2023/06/11 03:04:32;;;;;;;6.88;3.85;;;;;;;23.00;48.05;100426.84;4149281;28;20511;-70
2023/06/11 03:06:35;;;;;;;4.97;3.97;;;;;;;23.00;48.07;100429.50;4133049;28;20129;-70
2023/06/11 03:08:40;;;;;;;5.80;4.28;;;;;;;22.97;48.05;100430.47;4133072;28;20073;-71
2023/06/11 03:10:43;;;;;;;6.47;4.50;;;;;;;22.92;48.06;100437.72;4133136;28;20049;-71
2023/06/11 03:12:46;;;;;;;6.07;4.78;;;;;;;22.90;48.46;100434.28;4116887;28;20150;-71
2023/06/11 03:14:49;;;;;;;6.38;4.47;;;;;;;22.86;48.41;100437.97;4116636;28;20394;-70
2023/06/11 03:16:52;;;;;;;6.40;4.65;;;;;;;22.86;48.55;100437.13;4150338;28;20510;-71
2023/06/11 03:18:55;;;;;;;6.95;4.75;;;;;;;22.84;48.28;100439.81;4132871;28;20038;-70
2023/06/11 03:20:58;;;;;;;6.13;4.35;;;;;;;22.82;48.51;100455.78;4149077;28;20037;-71
2023/06/11 03:23:01;;;;;;;5.32;4.47;;;;;;;22.79;48.27;100444.41;4150116;28;20076;-70
2023/06/11 03:25:06;;;;;;;8.38;4.75;;;;;;;22.78;48.43;100447.97;4132303;28;20145;-71
2023/06/11 03:27:11;;;;;;;9.63;4.85;;;;;;;22.88;47.87;100444.09;4132441;28;20473;-71
2023/06/11 03:29:14;;;;;;;6.30;4.75;;;;;;;22.92;47.65;100447.47;4149836;28;20057;-70
2023/06/11 03:31:25;;;;;;;7.65;4.88;;;;;;;22.81;47.89;100439.94;4149066;28;20045;-70
2023/06/11 03:33:28;;;;;;;6.88;4.35;;;;;;;22.83;48.16;100440.72;4116559;28;20046;-70
2023/06/11 03:35:31;;;;;;;9.15;4.90;;;;;;;22.84;48.01;100439.81;4132430;28;20046;-70
2023/06/11 03:37:43;;;;;;;9.30;4.63;;;;;;;22.80;48.12;100443.50;4148896;28;20080;-71
2023/06/11 03:39:50;;;;;;;6.75;4.75;;;;;;;22.82;48.02;100441.66;4116481;28;20074;-71
2023/06/11 03:41:55;;;;;;;5.68;4.60;;;;;;;22.77;48.17;100448.91;4149020;28;20104;-71
2023/06/11 03:43:59;;;;;;;7.90;4.45;;;;;;;22.74;48.59;100447.25;4132359;28;20050;-71
2023/06/11 03:46:03;;;;;;;5.78;4.65;;;;;;;22.78;48.39;100450.63;4132553;28;20038;-72
2023/06/11 03:48:07;;;;;;;7.28;4.93;;;;;;;22.78;48.42;100451.50;4132607;28;20038;-71
2023/06/11 03:50:12;;;;;;;5.03;4.13;;;;;;;22.74;48.67;100451.69;4132467;28;20049;-70
2023/06/11 03:52:16;;;;;;;4.30;3.75;;;;;;;22.76;48.91;100445.38;4132462;28;20090;-71
2023/06/11 03:54:18;;;;;;;6.28;4.88;;;;;;;22.79;48.65;100452.38;4149506;28;20041;-71
2023/06/11 03:56:21;;;;;;;7.85;4.68;;;;;;;22.79;48.82;100452.38;4148437;28;20549;-71
2023/06/11 03:58:26;;;;;;;6.47;4.38;;;;;;;22.72;49.15;100445.56;4149770;28;20054;-71
2023/06/11 04:00:31;;;;;;;7.55;5.20;;;;;;;22.67;49.11;100449.22;4132272;28;20121;-71
2023/06/11 04:02:35;;;;;;;6.22;4.95;;;;;;;22.67;49.31;100451.88;4148610;28;20073;-71
2023/06/11 04:04:39;;;;;;;6.68;5.18;;;;;;;22.72;49.21;100448.22;4131471;28;20038;-71
2023/06/11 04:06:43;;;;;;;8.05;5.07;;;;;;;22.71;49.09;100449.16;4116016;28;20057;-71
2023/06/11 04:08:46;;;;;;;;;;;;;;;22.63;48.89;100452.94;4132572;28;20042;-71
2023/06/11 04:10:49;;;;;;;8.00;5.00;;;;;;;22.58;49.45;100454.88;4132183;28;19982;-71
2023/06/11 04:12:53;;;;;;;6.40;5.20;;;;;;;22.64;48.93;100454.66;4132234;28;20042;-71
2023/06/11 04:14:57;;;;;;;6.07;4.65;;;;;;;22.60;49.31;100446.88;4131909;28;20046;-71
2023/06/11 04:17:00;;;;;;;6.38;4.68;;;;;;;22.59;49.64;100453.97;4148331;28;20038;-71
2023/06/11 04:19:04;;;;;;;8.70;5.55;;;;;;;22.60;49.61;100453.03;4148307;28;20096;-71
2023/06/11 04:21:07;;;;;;;6.45;5.45;;;;;;;22.64;49.72;100449.34;4131931;28;20039;-71
2023/06/11 04:23:10;;;;;;;6.40;4.72;;;;;;;22.65;49.48;100455.53;4131970;28;20538;-71
2023/06/11 04:25:13;;;;;;;7.77;5.23;;;;;;;22.65;49.45;100455.53;4148004;28;20050;-71
2023/06/11 04:27:17;;;;;;;7.30;5.63;;;;;;;22.65;49.73;100450.22;4115667;28;20149;-71
2023/06/11 04:29:22;;;;;;;;;;;;;;;22.60;49.74;100453.03;4148575;28;20057;-71
2023/06/11 04:31:30;;;;;;;7.40;5.80;;;;;;;22.70;50.06;100456.22;4148188;28;19922;-72
2023/06/11 04:33:36;;;;;;;8.90;5.95;;;;;;;22.77;49.49;100459.53;4131845;28;20039;-71
2023/06/11 04:35:40;;;;;;;7.90;5.57;;;;;;;22.81;49.37;100453.19;4115416;28;20497;-70
2023/06/11 04:37:43;;;;;;;7.43;6.07;;;;;;;22.81;49.46;100459.34;4131784;28;20594;-70
2023/06/11 04:39:55;;;;;;;6.90;5.15;;;;;;;22.64;49.68;100456.44;4131846;28;20065;-70
2023/06/11 04:41:58;;;;;;;7.95;5.80;;;;;;;22.67;49.89;100461.63;4131563;28;20065;-70
2023/06/11 04:44:02;;;;;;;10.10;6.07;;;;;;;22.79;49.59;100463.84;4148854;28;20092;-70
2023/06/11 04:46:06;;;;;;;;;;;;;;;22.75;49.45;100461.34;4131922;28;20054;-70
2023/06/11 04:48:13;;;;;;;8.82;6.13;;;;;;;22.72;49.94;100461.47;4128142;28;20355;-70
2023/06/11 04:50:20;;;;;;;10.32;6.03;;;;;;;22.73;49.86;100460.53;4122474;28;20378;-70
2023/06/11 04:52:28;;;;;;;8.98;5.90;;;;;;;22.75;49.66;100456.94;4125991;28;20064;-71
2023/06/11 04:54:31;;;;;;;9.82;6.68;;;;;;;22.74;49.87;100457.00;4117612;28;20035;-70
2023/06/11 04:56:37;;;;;;;7.45;5.90;;;;;;;22.78;50.25;100455.94;4129914;23;20036;-60
2023/06/11 04:58:43;;;;;;;7.13;6.38;;;;;;;22.90;49.38;100465.25;4131221;28;20070;-60
2023/06/11 05:00:47;;;;;;;6.10;5.30;;;;;;;22.84;49.45;100461.88;4148354;28;20068;-59
2023/06/11 05:02:50;;;;;;;11.32;6.07;;;;;;;22.80;49.91;100460.25;4131407;28;20034;-59
2023/06/11 05:04:54;;;;;;;7.05;5.72;;;;;;;22.79;50.10;100463.84;4115329;28;20535;-60
2023/06/11 05:06:57;;;;;;;7.88;6.13;;;;;;;22.93;49.76;100460.69;4146368;28;20038;-59
2023/06/11 05:09:03;;;;;;;8.73;5.47;;;;;;;22.93;49.67;100465.97;4099179;29;20043;-60
2023/06/11 05:11:06;;;;;;;;;;;;;;;23.06;49.28;100470.84;4102878;28;20039;-59
2023/06/11 05:13:10;;;;;;;9.65;5.65;;;;;;;22.98;49.23;100471.09;4099031;29;20324;-59
2023/06/11 05:15:13;;;;;;;10.55;6.05;;;;;;;23.01;49.12;100477.16;4114795;28;20047;-59
2023/06/11 05:17:16;;;;;;;6.78;5.78;;;;;;;23.01;49.24;100474.53;4114973;28;20043;-59
2023/06/11 05:19:21;;;;;;;8.40;5.95;;;;;;;22.95;49.46;100481.81;4127502;28;20554;-59
2023/06/11 05:21:25;;;;;;;7.55;6.03;;;;;;;23.05;49.37;100485.00;4147451;28;20124;-59
2023/06/11 05:23:31;;;;;;;7.93;6.35;;;;;;;23.11;49.48;100483.00;4129416;28;20097;-59
2023/06/11 05:25:46;;;;;;;9.70;6.28;;;;;;;23.17;49.18;100479.25;4128859;28;20042;-59
2023/06/11 05:27:54;;;;;;;10.13;6.70;;;;;;;23.23;48.95;100487.00;4099134;29;20313;-59
2023/06/11 05:29:57;;;;;;;7.75;5.88;;;;;;;23.26;48.96;100486.91;4114826;28;20437;-59
2023/06/11 05:32:00;;;;;;;7.45;5.32;;;;;;;23.18;49.60;100486.31;4114859;28;20089;-59
2023/06/11 05:34:04;;;;;;;7.68;5.75;;;;;;;23.23;49.87;100494.97;4114456;28;20134;-59
2023/06/11 05:36:08;;;;;;;10.15;6.40;;;;;;;23.33;49.19;100491.03;4097634;29;20108;-59
2023/06/11 05:38:12;;;;;;;8.25;6.22;;;;;;;23.40;49.35;100496.09;4130814;28;20046;-59
2023/06/11 05:40:17;;;;;;;10.95;5.97;;;;;;;23.51;48.87;100494.75;4114779;28;20042;-60
2023/06/11 05:42:20;;;;;;;5.57;4.90;;;;;;;23.47;49.33;100493.13;4114698;28;20065;-59
2023/06/11 05:44:23;;;;;;;8.13;5.63;;;;;;;23.51;48.93;100493.91;4114450;28;20039;-59
2023/06/11 05:46:27;;;;;;;8.95;5.90;;;;;;;23.66;48.19;100498.59;4098595;29;20136;-59
2023/06/11 05:48:31;;;;;;;8.52;5.40;;;;;;;23.57;48.71;100498.06;4114670;28;20043;-59
2023/06/11 05:50:34;;;;;;;9.05;6.10;;;;;;;23.67;48.72;100488.81;4098455;29;20055;-59
2023/06/11 05:52:37;;;;;;;8.30;5.68;;;;;;;23.81;48.26;100496.25;4098509;29;20043;-59
2023/06/11 05:54:42;;;;;;;8.23;5.57;;;;;;;23.84;47.68;100490.81;4114327;28;20035;-60
2023/06/11 05:56:47;;;;;;;7.78;5.03;;;;;;;23.68;48.59;100496.75;4114358;28;20050;-59
2023/06/11 05:58:50;;;;;;;8.55;5.30;;;;;;;23.75;48.38;100497.34;4114630;28;20039;-59
2023/06/11 06:00:54;;;;;;;7.97;5.18;;;;;;;23.88;48.65;100498.63;4114399;28;20090;-59
2023/06/11 06:02:57;;;;;;;;;;;;;;;24.04;48.13;100501.50;4114813;28;20038;-59
2023/06/11 06:05:04;;;;;;;7.88;5.38;;;;;;;24.04;48.07;100501.50;4114168;28;19922;-59
2023/06/11 06:07:07;;;;;;;7.90;5.75;;;;;;;24.23;47.36;100509.56;4114369;28;20039;-59
2023/06/11 06:09:11;;;;;;;8.88;6.15;;;;;;;24.27;47.76;100497.03;4114370;28;20039;-59
2023/06/11 06:11:15;;;;;;;6.45;5.45;;;;;;;24.22;48.42;100501.66;4131605;28;20057;-60
2023/06/11 06:13:19;;;;;;;7.38;5.05;;;;;;;24.33;47.94;100503.91;4114404;28;20039;-59
2023/06/11 06:15:22;;;;;;;7.20;5.75;;;;;;;24.37;47.90;100502.81;4114089;28;20098;-59
2023/06/11 06:17:29;;;;;;;6.22;5.07;;;;;;;24.47;47.42;100505.94;4114783;28;20046;-59
2023/06/11 06:19:32;;;;;;;7.68;4.60;;;;;;;24.42;47.24;100510.63;4114287;28;20447;-59
2023/06/11 06:21:35;;;;;;;8.45;5.13;;;;;;;24.44;48.12;100509.59;4114221;28;20035;-59
2023/06/11 06:23:38;;;;;;;5.57;4.28;;;;;;;24.55;47.66;100506.50;4114188;28;20401;-59
2023/06/11 06:25:45;;;;;;;6.55;4.95;;;;;;;24.64;47.28;100511.44;4130143;28;20050;-59
2023/06/11 06:27:50;;;;;;;6.72;4.60;;;;;;;24.77;47.38;100508.25;4098685;28;20138;-59
2023/06/11 06:29:52;;;;;;;8.05;4.40;;;;;;;24.80;47.01;100514.28;4103404;28;20413;-59
2023/06/11 06:31:55;;;;;;;8.32;4.78;;;;;;;25.01;46.24;100515.09;4119473;28;20517;-59
2023/06/11 06:33:59;;;;;;;7.50;4.93;;;;;;;25.00;45.69;100513.41;4103210;29;20301;-60
2023/06/11 06:36:05;;;;;;;4.72;3.80;;;;;;;24.93;45.77;100519.91;4119516;28;20043;-59
2023/06/11 06:38:08;;;;;;;4.75;3.88;;;;;;;25.05;45.33;100519.34;4103402;28;20047;-60
2023/06/11 06:40:13;;;;;;;4.93;3.97;;;;;;;25.06;45.60;100521.09;4119576;28;20079;-59
2023/06/11 06:42:16;;;;;;;8.05;4.85;;;;;;;25.18;45.77;100518.81;4103240;29;20544;-60
2023/06/11 06:44:24;;;;;;;6.95;5.07;;;;;;;25.43;45.25;100524.75;4119324;28;20130;-60
2023/06/11 06:46:27;;;;;;;;;;;;;;;25.35;44.89;100524.25;4116264;28;20043;-59
2023/06/11 06:48:30;;;;;;;8.18;4.22;;;;;;;25.18;45.10;100519.66;4111281;28;19926;-60
2023/06/11 06:50:33;;;;;;;5.63;3.92;;;;;;;25.21;44.89;100524.00;4087454;29;20044;-60
2023/06/11 06:52:36;;;;;;;5.50;4.03;;;;;;;25.29;44.51;100521.84;4120532;28;20062;-59
2023/06/11 06:54:39;;;;;;;7.45;4.68;;;;;;;25.44;44.26;100529.13;4103181;29;20436;-60
2023/06/11 06:56:43;;;;;;;9.27;4.20;;;;;;;25.43;44.25;100523.88;4103155;29;20501;-60
2023/06/11 06:58:45;;;;;;;6.68;4.10;;;;;;;25.63;43.05;100522.94;4103357;28;20047;-59
2023/06/11 07:00:50;;;;;;;6.18;4.22;;;;;;;25.67;43.20;100516.56;4120438;28;20129;-60
2023/06/11 07:02:55;;;;;;;7.50;4.22;;;;;;;25.63;42.17;100520.28;4103400;28;20412;-60
2023/06/11 07:04:58;;;;;;;5.57;3.67;;;;;;;25.51;42.71;100523.50;4103017;29;20047;-60
2023/06/11 07:07:01;;;;;;;4.63;3.80;;;;;;;25.58;43.10;100536.50;4103175;29;20055;-59
2023/06/11 07:09:05;;;;;;;6.40;4.05;;;;;;;25.54;42.35;100531.34;4119351;28;20034;-59
2023/06/11 07:11:08;;;;;;;9.05;3.95;;;;;;;25.78;41.68;100530.19;4103411;28;20039;-59
2023/06/11 07:13:19;;;;;;;7.18;4.57;;;;;;;25.75;41.96;100529.50;4103191;29;20039;-60
2023/06/11 07:15:21;;;;;;;6.22;4.50;;;;;;;25.72;42.22;100530.47;4102986;29;20090;-59
2023/06/11 07:17:27;;;;;;;6.75;4.30;;;;;;;25.82;41.84;100530.91;4103095;29;20074;-60
2023/06/11 07:19:30;;;;;;;7.53;5.53;;;;;;;25.94;41.72;100529.44;4103254;28;20039;-60
2023/06/11 07:21:35;;;;;;;6.25;4.68;;;;;;;26.04;40.93;100529.91;4103158;29;20433;-60
2023/06/11 07:23:38;;;;;;;5.18;4.45;;;;;;;25.98;40.97;100524.81;4120206;28;20049;-60
2023/06/11 07:25:43;;;;;;;5.55;4.60;;;;;;;25.96;41.52;100527.56;4102921;28;20094;-59
2023/06/11 07:27:48;;;;;;;4.88;3.78;;;;;;;26.02;41.04;100527.31;4087032;29;20055;-60
2023/06/11 07:29:51;;;;;;;6.25;4.28;;;;;;;26.24;40.48;100532.44;4119073;28;20045;-59
2023/06/11 07:31:53;;;;;;;6.97;3.85;;;;;;;26.08;41.05;100537.66;4103136;29;20077;-59
2023/06/11 07:33:58;;;;;;;5.95;4.20;;;;;;;26.09;41.66;100539.41;4102723;28;20039;-60
2023/06/11 07:36:01;;;;;;;8.63;4.80;;;;;;;26.11;40.93;100542.84;4087163;29;20115;-60
2023/06/11 07:38:05;;;;;;;7.25;4.35;;;;;;;26.20;40.71;100530.00;4103004;29;20110;-60
2023/06/11 07:40:09;;;;;;;6.82;3.90;;;;;;;26.36;39.60;100527.44;4084613;29;20074;-60
2023/06/11 07:42:12;;;;;;;5.68;3.80;;;;;;;26.24;39.65;100526.22;4100539;29;20049;-59
2023/06/11 07:44:15;;;;;;;5.18;3.60;;;;;;;26.30;39.66;100533.94;4100214;28;20082;-60
2023/06/11 07:46:18;;;;;;;5.10;3.58;;;;;;;26.34;39.58;100534.63;4100490;28;20035;-60
2023/06/11 07:48:21;;;;;;;6.07;4.10;;;;;;;26.46;39.87;100526.03;4100486;28;20510;-60
2023/06/11 07:50:27;;;;;;;;;;;;;;;26.58;40.10;100528.03;4100880;29;20067;-60
2023/06/11 07:52:30;;;;;;;8.68;4.85;;;;;;;26.86;38.92;100529.31;4117632;28;19922;-60
2023/06/11 07:54:40;;;;;;;6.13;4.18;;;;;;;26.72;38.81;100524.72;4100136;29;20493;-60
2023/06/11 07:56:46;;;;;;;5.63;4.05;;;;;;;26.69;39.22;100534.66;4099967;28;20493;-60
2023/06/11 07:58:49;;;;;;;6.10;4.38;;;;;;;26.85;38.99;100526.72;4116533;28;20077;-60
2023/06/11 08:00:52;;;;;;;5.80;4.22;;;;;;;26.90;38.42;100519.34;4116505;28;20097;-60
2023/06/11 08:02:55;;;;;;;9.88;4.70;;;;;;;26.94;39.15;100531.56;4116492;28;20420;-60
2023/06/11 08:04:58;;;;;;;5.03;4.15;;;;;;;26.93;38.96;100535.19;4116239;28;20524;-60
2023/06/11 08:07:03;;;;;;;6.07;3.67;;;;;;;27.11;39.08;100528.00;4099295;29;20534;-60
2023/06/11 08:09:06;;;;;;;8.50;4.47;;;;;;;27.13;38.42;100531.44;4115264;28;20046;-60
2023/06/11 08:11:09;;;;;;;9.45;4.97;;;;;;;27.30;37.40;100523.38;4116483;28;20104;-60
2023/06/11 08:13:14;;;;;;;6.80;4.80;;;;;;;27.27;36.77;100525.34;4116381;28;20497;-60
2023/06/11 08:15:17;;;;;;;4.97;4.15;;;;;;;27.37;36.92;100531.94;4116114;28;20134;-59
2023/06/11 08:17:20;;;;;;;6.38;3.58;;;;;;;27.14;37.69;100522.50;4099183;29;20206;-59
2023/06/11 08:19:23;;;;;;;7.57;4.63;;;;;;;27.35;36.76;100525.84;4116305;28;20404;-60
2023/06/11 08:21:26;;;;;;;11.23;4.18;;;;;;;27.42;36.18;100524.53;4116252;28;20576;-60
2023/06/11 08:23:40;;;;;;;7.53;4.32;;;;;;;27.49;36.11;100533.06;4116133;28;20051;-60
2023/06/11 08:25:43;;;;;;;7.05;4.70;;;;;;;27.49;35.66;100531.25;4116063;28;20077;-60
2023/06/11 08:27:46;;;;;;;12.38;4.20;;;;;;;27.44;34.94;100525.31;4116186;28;20137;-60
2023/06/11 08:29:49;;;;;;;5.95;4.15;;;;;;;27.37;35.72;100526.59;4116202;28;20049;-60
2023/06/11 08:31:52;;;;;;;6.57;4.47;;;;;;;27.36;35.29;100519.53;4116069;28;20412;-60
2023/06/11 08:33:54;;;;;;;6.53;4.38;;;;;;;27.38;35.91;100520.31;4115916;28;20515;-59
2023/06/11 08:35:57;;;;;;;5.90;4.57;;;;;;;27.53;35.39;100515.94;4116040;28;20050;-59
2023/06/11 08:38:00;;;;;;;7.13;4.78;;;;;;;27.67;34.84;100516.03;4116073;28;20050;-60
2023/06/11 08:40:08;;;;;;;6.00;4.57;;;;;;;27.69;35.54;100518.59;4127579;28;20076;-59
2023/06/11 08:42:12;;;;;;;7.57;3.65;;;;;;;27.61;34.66;100520.84;4123697;28;20042;-59
2023/06/11 08:44:15;;;;;;;5.72;4.20;;;;;;;27.61;35.43;100518.16;4115702;28;20035;-59
2023/06/11 08:46:23;;;;;;;7.95;4.20;;;;;;;27.66;35.43;100524.97;4115817;28;20047;-59
2023/06/11 08:48:30;;;;;;;5.78;4.40;;;;;;;27.74;35.45;100519.19;4116031;28;20450;-59
2023/06/11 08:50:33;;;;;;;7.40;4.10;;;;;;;27.84;36.05;100522.22;4115101;28;20070;-59
2023/06/11 08:52:36;;;;;;;6.88;4.15;;;;;;;27.88;35.20;100521.09;4098450;28;20489;-59
2023/06/11 08:54:38;;;;;;;6.53;4.63;;;;;;;28.03;35.18;100524.72;4115621;28;20053;-60
2023/06/11 08:56:43;;;;;;;7.50;4.00;;;;;;;27.77;35.18;100520.84;4078444;28;1085442;-59
2023/06/11 08:58:48;;;;;;;8.10;4.80;;;;;;;27.87;34.72;100511.34;4116632;28;20133;-59
2023/06/11 09:00:50;;;;;;;7.97;4.55;;;;;;;27.89;35.10;100519.28;4099351;29;20047;-59
2023/06/11 09:02:54;;;;;;;5.57;4.47;;;;;;;27.95;35.16;100510.88;4116495;28;20125;-59
2023/06/11 09:04:58;;;;;;;5.75;4.55;;;;;;;28.20;34.94;100510.38;4116173;28;20034;-59
2023/06/11 09:07:02;;;;;;;5.32;4.25;;;;;;;28.31;34.69;100520.41;4116395;28;20134;-60
2023/06/11 09:09:11;;;;;;;7.80;4.30;;;;;;;28.40;31.68;100503.81;4115322;28;20051;-60
2023/06/11 09:11:16;;;;;;;7.20;4.15;;;;;;;28.16;31.52;100508.81;4116415;28;20047;-59
2023/06/11 09:13:24;;;;;;;11.55;5.10;;;;;;;28.44;30.17;100513.38;4116357;28;20042;-60
2023/06/11 09:15:27;;;;;;;15.00;5.43;;;;;;;28.34;30.07;100502.41;4116106;28;20511;-60
2023/06/11 09:17:35;;;;;;;7.35;4.60;;;;;;;28.32;30.98;100503.44;4116267;28;20046;-60
2023/06/11 09:19:38;;;;;;;6.95;4.15;;;;;;;28.39;29.87;100502.97;4116286;28;20101;-60
2023/06/11 09:21:49;;;;;;;6.47;3.93;;;;;;;28.34;30.27;100505.06;4116251;28;20049;-61
2023/06/11 09:23:52;;;;;;;9.18;4.53;;;;;;;28.47;30.11;100505.19;4115858;28;20037;-60
2023/06/11 09:25:55;;;;;;;6.07;4.33;;;;;;;28.51;29.73;100511.22;4115113;28;20584;-60
2023/06/11 09:28:06;;;;;;;7.20;5.05;;;;;;;28.55;30.04;100497.56;4098904;29;20389;-60
2023/06/11 09:30:13;;;;;;;7.63;4.80;;;;;;;28.61;29.59;100495.50;4098973;29;20154;-60
2023/06/11 09:32:19;;;;;;;5.95;4.53;;;;;;;28.53;30.51;100502.16;4116242;28;20057;-60
2023/06/11 09:34:36;;;;;;;5.72;3.97;;;;;;;28.80;29.95;100490.75;4115885;28;20433;-60
2023/06/11 09:36:39;;;;;;;7.03;4.13;;;;;;;28.73;29.40;100489.41;4115999;28;20047;-60
2023/06/11 09:38:46;;;;;;;5.78;3.70;;;;;;;28.72;28.87;100487.66;4115949;28;20043;-60
2023/06/11 09:40:51;;;;;;;5.65;3.90;;;;;;;28.79;29.00;100496.19;4116030;28;20112;-60